Parksville, Canada
Current Conditions -  °F | °C
As of 8:38 PM on Wednesday 22 Oct 2014 (Local Time) from CYCD Reporting Station
Light Rain Light Rain  
Wind Chill: 52°   Ceiling: 2000
Heat Index: 52°   Visibility: 6mi
Dew Point: 50°   Wind: 3mph
Humidity: 94%   Direction: 250°WSW
Pressure: 29.5"   Gusts: NA
Location:  49.32°N, 124.31°W
Report Text: CYCD 230338Z 25003KT 190V280 6SM -RA BR FEW004 BKN020 BKN030 11/10 A2950 RMK SF1SC4SC2 SLP991 DENSITY ALT 100FT
Loading
Personal Weather Stations






























Interactive Weather Map New forecast layout! Learn more

10-Day Weather Forecast

Advertisements
Track Severe Weather on mobile